sensor_id;sensor_type;location;lat;lon;timestamp;P1;durP1;ratioP1;P2;durP2;ratioP2
71423;SDS011;59240;51.370;-0.486;2023-08-21T00:04:05;6.55;;;2.70;;
71423;SDS011;59240;51.370;-0.486;2023-08-21T00:09:02;9.20;;;3.05;;
71423;SDS011;59240;51.370;-0.486;2023-08-21T00:13:59;6.55;;;3.05;;
71423;SDS011;59240;51.370;-0.486;2023-08-21T00:18:56;7.55;;;2.83;;
71423;SDS011;59240;51.370;-0.486;2023-08-21T00:23:53;9.50;;;3.25;;
71423;SDS011;59240;51.370;-0.486;2023-08-21T00:28:50;7.05;;;2.60;;
71423;SDS011;59240;51.370;-0.486;2023-08-21T00:33:46;4.53;;;3.13;;
71423;SDS011;59240;51.370;-0.486;2023-08-21T00:38:43;6.10;;;2.67;;
71423;SDS011;59240;51.370;-0.486;2023-08-21T00:43:40;7.57;;;3.05;;
71423;SDS011;59240;51.370;-0.486;2023-08-21T00:48:37;11.18;;;3.08;;
71423;SDS011;59240;51.370;-0.486;2023-08-21T00:53:34;7.43;;;2.75;;
71423;SDS011;59240;51.370;-0.486;2023-08-21T00:58:31;6.60;;;3.22;;
71423;SDS011;59240;51.370;-0.486;2023-08-21T01:03:28;10.85;;;3.67;;
71423;SDS011;59240;51.370;-0.486;2023-08-21T01:08:42;5.72;;;2.78;;
71423;SDS011;59240;51.370;-0.486;2023-08-21T01:19:10;7.47;;;2.70;;
71423;SDS011;59240;51.370;-0.486;2023-08-21T01:24:26;8.15;;;2.63;;
71423;SDS011;59240;51.370;-0.486;2023-08-21T01:29:23;4.57;;;2.95;;
71423;SDS011;59240;51.370;-0.486;2023-08-21T01:34:20;7.65;;;2.97;;
71423;SDS011;59240;51.370;-0.486;2023-08-21T01:39:18;8.07;;;2.90;;
71423;SDS011;59240;51.370;-0.486;2023-08-21T01:44:15;7.82;;;2.72;;
71423;SDS011;59240;51.370;-0.486;2023-08-21T01:49:12;8.85;;;3.25;;
71423;SDS011;59240;51.370;-0.486;2023-08-21T01:54:09;9.57;;;2.95;;
71423;SDS011;59240;51.370;-0.486;2023-08-21T01:59:05;8.38;;;3.25;;
71423;SDS011;59240;51.370;-0.486;2023-08-21T02:04:03;17.38;;;3.45;;
71423;SDS011;59240;51.370;-0.486;2023-08-21T02:09:00;11.23;;;3.47;;
71423;SDS011;59240;51.370;-0.486;2023-08-21T02:13:57;5.32;;;3.35;;
71423;SDS011;59240;51.370;-0.486;2023-08-21T02:18:54;6.25;;;2.72;;
71423;SDS011;59240;51.370;-0.486;2023-08-21T02:23:51;7.03;;;3.45;;
71423;SDS011;59240;51.370;-0.486;2023-08-21T02:28:48;12.30;;;3.88;;
71423;SDS011;59240;51.370;-0.486;2023-08-21T02:33:47;7.28;;;3.42;;
71423;SDS011;59240;51.370;-0.486;2023-08-21T02:38:46;4.45;;;3.05;;
71423;SDS011;59240;51.370;-0.486;2023-08-21T02:43:43;12.30;;;3.67;;
71423;SDS011;59240;51.370;-0.486;2023-08-21T02:48:40;9.50;;;3.22;;
71423;SDS011;59240;51.370;-0.486;2023-08-21T02:53:37;16.42;;;3.17;;
71423;SDS011;59240;51.370;-0.486;2023-08-21T02:58:34;4.75;;;2.85;;
71423;SDS011;59240;51.370;-0.486;2023-08-21T03:03:31;8.93;;;3.47;;
71423;SDS011;59240;51.370;-0.486;2023-08-21T03:08:30;17.20;;;4.07;;
71423;SDS011;59240;51.370;-0.486;2023-08-21T03:13:28;5.65;;;2.58;;
71423;SDS011;59240;51.370;-0.486;2023-08-21T03:18:24;5.97;;;2.75;;
71423;SDS011;59240;51.370;-0.486;2023-08-21T03:23:21;10.05;;;3.78;;
71423;SDS011;59240;51.370;-0.486;2023-08-21T03:28:18;8.93;;;3.67;;
71423;SDS011;59240;51.370;-0.486;2023-08-21T03:33:15;10.13;;;3.08;;
71423;SDS011;59240;51.370;-0.486;2023-08-21T03:38:12;8.13;;;3.35;;
71423;SDS011;59240;51.370;-0.486;2023-08-21T03:43:09;10.63;;;3.63;;
71423;SDS011;59240;51.370;-0.486;2023-08-21T03:48:06;10.90;;;3.13;;
71423;SDS011;59240;51.370;-0.486;2023-08-21T03:53:03;8.95;;;3.47;;
71423;SDS011;59240;51.370;-0.486;2023-08-21T03:58:00;8.27;;;2.83;;
71423;SDS011;59240;51.370;-0.486;2023-08-21T04:02:57;9.68;;;3.50;;
71423;SDS011;59240;51.370;-0.486;2023-08-21T04:07:54;10.05;;;3.17;;
71423;SDS011;59240;51.370;-0.486;2023-08-21T04:12:51;6.97;;;2.45;;
71423;SDS011;59240;51.370;-0.486;2023-08-21T04:17:48;5.57;;;2.42;;
71423;SDS011;59240;51.370;-0.486;2023-08-21T04:22:45;6.80;;;2.53;;
71423;SDS011;59240;51.370;-0.486;2023-08-21T04:27:42;5.75;;;2.83;;
71423;SDS011;59240;51.370;-0.486;2023-08-21T04:32:39;8.55;;;2.70;;
71423;SDS011;59240;51.370;-0.486;2023-08-21T04:37:37;9.48;;;2.28;;
71423;SDS011;59240;51.370;-0.486;2023-08-21T04:42:38;7.93;;;2.50;;
71423;SDS011;59240;51.370;-0.486;2023-08-21T04:47:36;4.78;;;2.15;;
71423;SDS011;59240;51.370;-0.486;2023-08-21T04:52:33;5.78;;;2.25;;
71423;SDS011;59240;51.370;-0.486;2023-08-21T04:57:29;5.97;;;2.97;;
71423;SDS011;59240;51.370;-0.486;2023-08-21T05:02:26;8.75;;;2.78;;
71423;SDS011;59240;51.370;-0.486;2023-08-21T05:07:23;7.45;;;2.80;;
71423;SDS011;59240;51.370;-0.486;2023-08-21T05:12:20;5.18;;;2.35;;
71423;SDS011;59240;51.370;-0.486;2023-08-21T05:17:17;5.30;;;1.70;;
71423;SDS011;59240;51.370;-0.486;2023-08-21T05:22:13;3.03;;;1.83;;
71423;SDS011;59240;51.370;-0.486;2023-08-21T05:27:11;5.57;;;2.30;;
71423;SDS011;59240;51.370;-0.486;2023-08-21T05:32:07;4.57;;;1.98;;
71423;SDS011;59240;51.370;-0.486;2023-08-21T05:37:04;7.47;;;2.00;;
71423;SDS011;59240;51.370;-0.486;2023-08-21T05:42:01;6.22;;;2.72;;
71423;SDS011;59240;51.370;-0.486;2023-08-21T05:46:58;10.02;;;2.50;;
71423;SDS011;59240;51.370;-0.486;2023-08-21T05:51:56;4.10;;;2.08;;
71423;SDS011;59240;51.370;-0.486;2023-08-21T05:56:55;4.47;;;2.08;;
71423;SDS011;59240;51.370;-0.486;2023-08-21T06:01:51;4.28;;;2.00;;
71423;SDS011;59240;51.370;-0.486;2023-08-21T06:06:49;8.70;;;2.35;;
71423;SDS011;59240;51.370;-0.486;2023-08-21T06:11:45;6.20;;;1.85;;
71423;SDS011;59240;51.370;-0.486;2023-08-21T06:16:42;3.88;;;2.60;;
71423;SDS011;59240;51.370;-0.486;2023-08-21T06:21:41;5.18;;;2.13;;
71423;SDS011;59240;51.370;-0.486;2023-08-21T06:26:38;5.18;;;2.00;;
71423;SDS011;59240;51.370;-0.486;2023-08-21T06:31:35;6.13;;;2.10;;
71423;SDS011;59240;51.370;-0.486;2023-08-21T06:36:32;5.65;;;2.22;;
71423;SDS011;59240;51.370;-0.486;2023-08-21T06:41:29;2.72;;;1.55;;
71423;SDS011;59240;51.370;-0.486;2023-08-21T06:46:25;5.97;;;1.98;;
71423;SDS011;59240;51.370;-0.486;2023-08-21T06:51:23;6.00;;;1.90;;
71423;SDS011;59240;51.370;-0.486;2023-08-21T06:56:20;3.70;;;1.95;;
71423;SDS011;59240;51.370;-0.486;2023-08-21T07:01:16;4.40;;;1.70;;
71423;SDS011;59240;51.370;-0.486;2023-08-21T07:06:13;3.63;;;1.73;;
71423;SDS011;59240;51.370;-0.486;2023-08-21T07:11:10;4.03;;;1.70;;
71423;SDS011;59240;51.370;-0.486;2023-08-21T07:16:11;9.02;;;2.17;;
71423;SDS011;59240;51.370;-0.486;2023-08-21T07:21:08;4.32;;;1.98;;
71423;SDS011;59240;51.370;-0.486;2023-08-21T07:26:24;3.53;;;1.88;;
71423;SDS011;59240;51.370;-0.486;2023-08-21T07:31:22;2.78;;;1.58;;
71423;SDS011;59240;51.370;-0.486;2023-08-21T07:36:19;4.50;;;1.27;;
71423;SDS011;59240;51.370;-0.486;2023-08-21T07:41:16;4.78;;;1.17;;
71423;SDS011;59240;51.370;-0.486;2023-08-21T07:46:13;3.75;;;1.13;;
71423;SDS011;59240;51.370;-0.486;2023-08-21T07:51:12;4.93;;;1.63;;
71423;SDS011;59240;51.370;-0.486;2023-08-21T07:56:09;1.85;;;0.98;;
71423;SDS011;59240;51.370;-0.486;2023-08-21T08:01:06;3.42;;;1.17;;
71423;SDS011;59240;51.370;-0.486;2023-08-21T08:06:03;5.47;;;1.52;;
71423;SDS011;59240;51.370;-0.486;2023-08-21T08:11:03;2.65;;;1.08;;
71423;SDS011;59240;51.370;-0.486;2023-08-21T08:16:00;3.35;;;1.00;;
71423;SDS011;59240;51.370;-0.486;2023-08-21T08:20:57;5.03;;;1.25;;
71423;SDS011;59240;51.370;-0.486;2023-08-21T08:25:54;2.25;;;0.90;;
71423;SDS011;59240;51.370;-0.486;2023-08-21T08:30:51;2.65;;;1.00;;
71423;SDS011;59240;51.370;-0.486;2023-08-21T08:35:48;3.50;;;0.90;;
71423;SDS011;59240;51.370;-0.486;2023-08-21T08:40:46;4.38;;;1.13;;
71423;SDS011;59240;51.370;-0.486;2023-08-21T08:45:43;4.75;;;1.20;;
71423;SDS011;59240;51.370;-0.486;2023-08-21T08:50:44;3.10;;;1.42;;
71423;SDS011;59240;51.370;-0.486;2023-08-21T08:55:42;5.78;;;2.17;;
71423;SDS011;59240;51.370;-0.486;2023-08-21T09:00:39;3.35;;;0.98;;
71423;SDS011;59240;51.370;-0.486;2023-08-21T09:05:36;4.22;;;1.00;;
71423;SDS011;59240;51.370;-0.486;2023-08-21T09:10:34;4.03;;;0.90;;
71423;SDS011;59240;51.370;-0.486;2023-08-21T09:15:33;4.47;;;1.10;;
71423;SDS011;59240;51.370;-0.486;2023-08-21T09:20:37;2.78;;;0.90;;
71423;SDS011;59240;51.370;-0.486;2023-08-21T09:25:35;3.55;;;0.90;;
71423;SDS011;59240;51.370;-0.486;2023-08-21T09:30:45;2.22;;;1.25;;
71423;SDS011;59240;51.370;-0.486;2023-08-21T09:35:52;3.25;;;1.45;;
71423;SDS011;59240;51.370;-0.486;2023-08-21T09:40:51;3.75;;;1.10;;
71423;SDS011;59240;51.370;-0.486;2023-08-21T09:45:49;4.03;;;1.13;;
71423;SDS011;59240;51.370;-0.486;2023-08-21T09:50:51;5.07;;;1.05;;
71423;SDS011;59240;51.370;-0.486;2023-08-21T09:55:52;2.70;;;0.75;;
71423;SDS011;59240;51.370;-0.486;2023-08-21T10:00:49;3.33;;;0.93;;
71423;SDS011;59240;51.370;-0.486;2023-08-21T10:05:48;4.53;;;1.10;;
71423;SDS011;59240;51.370;-0.486;2023-08-21T10:10:45;2.35;;;0.82;;
71423;SDS011;59240;51.370;-0.486;2023-08-21T10:15:42;3.33;;;1.02;;
71423;SDS011;59240;51.370;-0.486;2023-08-21T10:20:39;3.15;;;1.02;;
71423;SDS011;59240;51.370;-0.486;2023-08-21T10:25:40;3.10;;;1.30;;
71423;SDS011;59240;51.370;-0.486;2023-08-21T10:30:38;2.25;;;0.95;;
71423;SDS011;59240;51.370;-0.486;2023-08-21T10:35:35;3.22;;;1.00;;
71423;SDS011;59240;51.370;-0.486;2023-08-21T10:40:33;4.00;;;1.13;;
71423;SDS011;59240;51.370;-0.486;2023-08-21T10:45:31;1.65;;;0.85;;
71423;SDS011;59240;51.370;-0.486;2023-08-21T10:50:27;4.03;;;1.23;;
71423;SDS011;59240;51.370;-0.486;2023-08-21T10:55:24;3.33;;;1.00;;
71423;SDS011;59240;51.370;-0.486;2023-08-21T11:00:21;3.00;;;1.00;;
71423;SDS011;59240;51.370;-0.486;2023-08-21T11:05:19;3.20;;;0.90;;
71423;SDS011;59240;51.370;-0.486;2023-08-21T11:10:16;2.10;;;0.90;;
71423;SDS011;59240;51.370;-0.486;2023-08-21T11:15:15;4.03;;;1.05;;
71423;SDS011;59240;51.370;-0.486;2023-08-21T11:20:18;2.75;;;1.17;;
71423;SDS011;59240;51.370;-0.486;2023-08-21T11:25:15;4.55;;;1.00;;
71423;SDS011;59240;51.370;-0.486;2023-08-21T11:30:12;4.32;;;1.40;;
71423;SDS011;59240;51.370;-0.486;2023-08-21T11:35:10;3.30;;;1.02;;
71423;SDS011;59240;51.370;-0.486;2023-08-21T11:40:07;2.88;;;1.02;;
71423;SDS011;59240;51.370;-0.486;2023-08-21T11:45:04;3.53;;;2.20;;
71423;SDS011;59240;51.370;-0.486;2023-08-21T11:50:04;5.60;;;1.35;;
71423;SDS011;59240;51.370;-0.486;2023-08-21T11:55:02;2.13;;;1.15;;
71423;SDS011;59240;51.370;-0.486;2023-08-21T12:00:04;2.08;;;0.70;;
71423;SDS011;59240;51.370;-0.486;2023-08-21T12:05:05;1.83;;;0.90;;
71423;SDS011;59240;51.370;-0.486;2023-08-21T12:10:03;1.58;;;0.85;;
71423;SDS011;59240;51.370;-0.486;2023-08-21T12:15:00;2.83;;;0.63;;
71423;SDS011;59240;51.370;-0.486;2023-08-21T12:19:57;2.72;;;0.88;;
71423;SDS011;59240;51.370;-0.486;2023-08-21T12:24:57;4.43;;;0.88;;
71423;SDS011;59240;51.370;-0.486;2023-08-21T12:29:54;2.88;;;1.00;;
71423;SDS011;59240;51.370;-0.486;2023-08-21T12:34:50;5.10;;;0.77;;
71423;SDS011;59240;51.370;-0.486;2023-08-21T12:39:48;2.45;;;1.33;;
71423;SDS011;59240;51.370;-0.486;2023-08-21T12:44:45;2.22;;;1.30;;
71423;SDS011;59240;51.370;-0.486;2023-08-21T12:49:42;4.15;;;1.50;;
71423;SDS011;59240;51.370;-0.486;2023-08-21T12:54:39;3.28;;;2.17;;
71423;SDS011;59240;51.370;-0.486;2023-08-21T12:59:36;2.17;;;1.30;;
71423;SDS011;59240;51.370;-0.486;2023-08-21T13:04:33;3.33;;;2.00;;
71423;SDS011;59240;51.370;-0.486;2023-08-21T13:09:30;3.15;;;2.13;;
71423;SDS011;59240;51.370;-0.486;2023-08-21T13:14:27;2.72;;;2.50;;
71423;SDS011;59240;51.370;-0.486;2023-08-21T13:19:27;4.32;;;2.20;;
71423;SDS011;59240;51.370;-0.486;2023-08-21T13:24:24;3.20;;;2.47;;
71423;SDS011;59240;51.370;-0.486;2023-08-21T13:29:22;3.33;;;2.35;;
71423;SDS011;59240;51.370;-0.486;2023-08-21T13:34:19;5.03;;;2.60;;
71423;SDS011;59240;51.370;-0.486;2023-08-21T13:39:16;4.60;;;2.75;;
71423;SDS011;59240;51.370;-0.486;2023-08-21T13:44:13;4.80;;;2.35;;
71423;SDS011;59240;51.370;-0.486;2023-08-21T13:49:10;4.97;;;2.45;;
71423;SDS011;59240;51.370;-0.486;2023-08-21T13:54:07;4.22;;;2.15;;
71423;SDS011;59240;51.370;-0.486;2023-08-21T13:59:03;2.58;;;1.70;;
71423;SDS011;59240;51.370;-0.486;2023-08-21T14:04:00;2.03;;;1.55;;
71423;SDS011;59240;51.370;-0.486;2023-08-21T14:09:00;2.67;;;1.30;;
71423;SDS011;59240;51.370;-0.486;2023-08-21T14:13:57;3.53;;;1.63;;
71423;SDS011;59240;51.370;-0.486;2023-08-21T14:18:54;3.35;;;1.60;;
71423;SDS011;59240;51.370;-0.486;2023-08-21T14:23:51;2.63;;;1.63;;
71423;SDS011;59240;51.370;-0.486;2023-08-21T14:28:47;4.93;;;1.95;;
71423;SDS011;59240;51.370;-0.486;2023-08-21T14:33:47;2.40;;;1.55;;
71423;SDS011;59240;51.370;-0.486;2023-08-21T14:38:44;2.78;;;1.77;;
71423;SDS011;59240;51.370;-0.486;2023-08-21T14:43:40;3.22;;;1.35;;
71423;SDS011;59240;51.370;-0.486;2023-08-21T14:48:37;3.78;;;1.38;;
71423;SDS011;59240;51.370;-0.486;2023-08-21T14:53:34;5.00;;;1.75;;
71423;SDS011;59240;51.370;-0.486;2023-08-21T14:58:30;3.53;;;1.90;;
71423;SDS011;59240;51.370;-0.486;2023-08-21T15:03:27;3.65;;;2.08;;
71423;SDS011;59240;51.370;-0.486;2023-08-21T15:08:24;2.33;;;1.60;;
71423;SDS011;59240;51.370;-0.486;2023-08-21T15:13:21;4.78;;;2.17;;
71423;SDS011;59240;51.370;-0.486;2023-08-21T15:18:18;2.83;;;2.13;;
71423;SDS011;59240;51.370;-0.486;2023-08-21T15:23:15;4.38;;;1.90;;
71423;SDS011;59240;51.370;-0.486;2023-08-21T15:28:12;1.98;;;1.75;;
71423;SDS011;59240;51.370;-0.486;2023-08-21T15:33:08;4.28;;;2.15;;
71423;SDS011;59240;51.370;-0.486;2023-08-21T15:38:06;2.95;;;1.67;;
71423;SDS011;59240;51.370;-0.486;2023-08-21T15:43:03;3.75;;;2.10;;
71423;SDS011;59240;51.370;-0.486;2023-08-21T15:48:03;2.22;;;1.90;;
71423;SDS011;59240;51.370;-0.486;2023-08-21T15:53:00;4.40;;;1.83;;
71423;SDS011;59240;51.370;-0.486;2023-08-21T15:57:57;4.03;;;2.10;;
71423;SDS011;59240;51.370;-0.486;2023-08-21T16:02:53;4.88;;;1.70;;
71423;SDS011;59240;51.370;-0.486;2023-08-21T16:07:51;4.30;;;1.88;;
71423;SDS011;59240;51.370;-0.486;2023-08-21T16:12:50;4.47;;;1.70;;
71423;SDS011;59240;51.370;-0.486;2023-08-21T16:17:48;3.45;;;1.63;;
71423;SDS011;59240;51.370;-0.486;2023-08-21T16:22:45;4.32;;;1.55;;
71423;SDS011;59240;51.370;-0.486;2023-08-21T16:27:43;3.53;;;1.75;;
71423;SDS011;59240;51.370;-0.486;2023-08-21T16:32:40;2.42;;;1.63;;
71423;SDS011;59240;51.370;-0.486;2023-08-21T16:37:37;4.35;;;1.58;;
71423;SDS011;59240;51.370;-0.486;2023-08-21T16:42:34;2.45;;;1.70;;
71423;SDS011;59240;51.370;-0.486;2023-08-21T16:47:31;1.70;;;1.60;;
71423;SDS011;59240;51.370;-0.486;2023-08-21T16:52:27;2.55;;;1.48;;
71423;SDS011;59240;51.370;-0.486;2023-08-21T16:57:24;2.20;;;1.17;;
71423;SDS011;59240;51.370;-0.486;2023-08-21T17:02:21;4.03;;;1.40;;
71423;SDS011;59240;51.370;-0.486;2023-08-21T17:07:18;2.50;;;1.63;;
71423;SDS011;59240;51.370;-0.486;2023-08-21T17:12:14;1.40;;;1.02;;
71423;SDS011;59240;51.370;-0.486;2023-08-21T17:17:11;3.22;;;1.40;;
71423;SDS011;59240;51.370;-0.486;2023-08-21T17:22:09;2.33;;;1.25;;
71423;SDS011;59240;51.370;-0.486;2023-08-21T17:27:05;2.00;;;1.30;;
71423;SDS011;59240;51.370;-0.486;2023-08-21T17:32:10;5.88;;;1.92;;
71423;SDS011;59240;51.370;-0.486;2023-08-21T17:37:08;3.72;;;1.23;;
71423;SDS011;59240;51.370;-0.486;2023-08-21T17:42:04;3.08;;;1.20;;
71423;SDS011;59240;51.370;-0.486;2023-08-21T17:47:04;4.05;;;1.38;;
71423;SDS011;59240;51.370;-0.486;2023-08-21T17:52:00;4.65;;;1.42;;
71423;SDS011;59240;51.370;-0.486;2023-08-21T17:56:57;2.47;;;1.35;;
71423;SDS011;59240;51.370;-0.486;2023-08-21T18:01:54;2.35;;;1.17;;
71423;SDS011;59240;51.370;-0.486;2023-08-21T18:06:51;4.13;;;1.67;;
71423;SDS011;59240;51.370;-0.486;2023-08-21T18:11:48;3.33;;;1.30;;
71423;SDS011;59240;51.370;-0.486;2023-08-21T18:16:45;1.67;;;1.17;;
71423;SDS011;59240;51.370;-0.486;2023-08-21T18:21:44;3.92;;;1.30;;
71423;SDS011;59240;51.370;-0.486;2023-08-21T18:26:43;4.30;;;1.30;;
71423;SDS011;59240;51.370;-0.486;2023-08-21T18:31:40;2.33;;;1.33;;
71423;SDS011;59240;51.370;-0.486;2023-08-21T18:36:37;1.92;;;1.15;;
71423;SDS011;59240;51.370;-0.486;2023-08-21T18:41:34;2.70;;;1.10;;
71423;SDS011;59240;51.370;-0.486;2023-08-21T18:46:30;4.03;;;1.10;;
71423;SDS011;59240;51.370;-0.486;2023-08-21T18:51:27;3.35;;;1.20;;
71423;SDS011;59240;51.370;-0.486;2023-08-21T18:56:24;2.58;;;1.48;;
71423;SDS011;59240;51.370;-0.486;2023-08-21T19:01:21;2.85;;;1.20;;
71423;SDS011;59240;51.370;-0.486;2023-08-21T19:06:18;2.42;;;1.00;;
71423;SDS011;59240;51.370;-0.486;2023-08-21T19:11:15;4.10;;;1.80;;
71423;SDS011;59240;51.370;-0.486;2023-08-21T19:16:12;4.82;;;1.52;;
71423;SDS011;59240;51.370;-0.486;2023-08-21T19:21:09;2.28;;;1.38;;
71423;SDS011;59240;51.370;-0.486;2023-08-21T19:26:06;3.90;;;1.75;;
71423;SDS011;59240;51.370;-0.486;2023-08-21T19:31:07;4.85;;;1.35;;
71423;SDS011;59240;51.370;-0.486;2023-08-21T19:36:13;4.18;;;1.80;;
71423;SDS011;59240;51.370;-0.486;2023-08-21T19:41:11;3.97;;;1.67;;
71423;SDS011;59240;51.370;-0.486;2023-08-21T19:46:09;2.28;;;1.20;;
71423;SDS011;59240;51.370;-0.486;2023-08-21T19:51:06;4.22;;;1.45;;
71423;SDS011;59240;51.370;-0.486;2023-08-21T19:56:03;4.13;;;1.67;;
71423;SDS011;59240;51.370;-0.486;2023-08-21T20:01:00;3.35;;;1.50;;
71423;SDS011;59240;51.370;-0.486;2023-08-21T20:06:03;1.98;;;1.20;;
71423;SDS011;59240;51.370;-0.486;2023-08-21T20:11:03;3.63;;;1.40;;
71423;SDS011;59240;51.370;-0.486;2023-08-21T20:16:02;2.13;;;1.15;;
71423;SDS011;59240;51.370;-0.486;2023-08-21T20:20:59;2.95;;;1.33;;
71423;SDS011;59240;51.370;-0.486;2023-08-21T20:25:56;2.33;;;1.30;;
71423;SDS011;59240;51.370;-0.486;2023-08-21T20:30:58;3.53;;;1.73;;
71423;SDS011;59240;51.370;-0.486;2023-08-21T20:35:57;2.55;;;1.48;;
71423;SDS011;59240;51.370;-0.486;2023-08-21T20:40:55;2.67;;;1.38;;
71423;SDS011;59240;51.370;-0.486;2023-08-21T20:46:05;4.10;;;1.40;;
71423;SDS011;59240;51.370;-0.486;2023-08-21T20:51:03;2.33;;;1.35;;
71423;SDS011;59240;51.370;-0.486;2023-08-21T20:56:00;2.95;;;1.40;;
71423;SDS011;59240;51.370;-0.486;2023-08-21T21:00:57;2.78;;;1.25;;
71423;SDS011;59240;51.370;-0.486;2023-08-21T21:05:54;7.28;;;1.58;;
71423;SDS011;59240;51.370;-0.486;2023-08-21T21:10:51;4.47;;;1.20;;
71423;SDS011;59240;51.370;-0.486;2023-08-21T21:15:47;3.78;;;1.20;;
71423;SDS011;59240;51.370;-0.486;2023-08-21T21:20:44;3.05;;;1.10;;
71423;SDS011;59240;51.370;-0.486;2023-08-21T21:25:41;1.52;;;0.98;;
71423;SDS011;59240;51.370;-0.486;2023-08-21T21:30:38;2.85;;;1.23;;
71423;SDS011;59240;51.370;-0.486;2023-08-21T21:35:35;3.65;;;1.15;;
71423;SDS011;59240;51.370;-0.486;2023-08-21T21:40:31;3.40;;;1.23;;
71423;SDS011;59240;51.370;-0.486;2023-08-21T21:45:30;4.22;;;2.22;;
71423;SDS011;59240;51.370;-0.486;2023-08-21T21:50:28;2.53;;;1.60;;
71423;SDS011;59240;51.370;-0.486;2023-08-21T21:55:24;8.98;;;1.92;;
71423;SDS011;59240;51.370;-0.486;2023-08-21T22:00:21;5.65;;;1.58;;
71423;SDS011;59240;51.370;-0.486;2023-08-21T22:05:19;4.90;;;1.90;;
71423;SDS011;59240;51.370;-0.486;2023-08-21T22:10:16;6.50;;;2.20;;
71423;SDS011;59240;51.370;-0.486;2023-08-21T22:15:13;4.72;;;2.03;;
71423;SDS011;59240;51.370;-0.486;2023-08-21T22:20:10;3.28;;;2.17;;
71423;SDS011;59240;51.370;-0.486;2023-08-21T22:25:08;2.63;;;1.70;;
71423;SDS011;59240;51.370;-0.486;2023-08-21T22:30:06;3.42;;;1.45;;
71423;SDS011;59240;51.370;-0.486;2023-08-21T22:35:04;3.47;;;1.50;;
71423;SDS011;59240;51.370;-0.486;2023-08-21T22:40:01;4.80;;;1.88;;
71423;SDS011;59240;51.370;-0.486;2023-08-21T22:44:58;2.35;;;1.50;;
71423;SDS011;59240;51.370;-0.486;2023-08-21T22:49:58;3.78;;;2.13;;
71423;SDS011;59240;51.370;-0.486;2023-08-21T22:54:55;4.40;;;1.65;;
71423;SDS011;59240;51.370;-0.486;2023-08-21T22:59:52;5.35;;;1.80;;
71423;SDS011;59240;51.370;-0.486;2023-08-21T23:04:49;5.90;;;1.73;;
71423;SDS011;59240;51.370;-0.486;2023-08-21T23:09:46;4.07;;;2.10;;
71423;SDS011;59240;51.370;-0.486;2023-08-21T23:14:43;6.43;;;2.88;;
71423;SDS011;59240;51.370;-0.486;2023-08-21T23:19:40;4.85;;;1.88;;
71423;SDS011;59240;51.370;-0.486;2023-08-21T23:24:37;4.00;;;2.22;;
71423;SDS011;59240;51.370;-0.486;2023-08-21T23:29:34;4.78;;;2.10;;
71423;SDS011;59240;51.370;-0.486;2023-08-21T23:34:31;5.28;;;2.92;;
71423;SDS011;59240;51.370;-0.486;2023-08-21T23:39:27;6.43;;;3.03;;
71423;SDS011;59240;51.370;-0.486;2023-08-21T23:44:24;10.48;;;3.05;;
71423;SDS011;59240;51.370;-0.486;2023-08-21T23:49:22;5.47;;;3.08;;
71423;SDS011;59240;51.370;-0.486;2023-08-21T23:54:19;12.85;;;3.45;;
71423;SDS011;59240;51.370;-0.486;2023-08-21T23:59:15;6.18;;;2.72;;
